sensor_id;sensor_type;location;lat;lon;timestamp;P1;durP1;ratioP1;P2;durP2;ratioP2
45734;SDS011;31446;49.632;8.328;2024-01-15T00:03:55;45.22;;;15.38;;
45734;SDS011;31446;49.632;8.328;2024-01-15T00:19:04;45.83;;;15.57;;
45734;SDS011;31446;49.632;8.328;2024-01-15T00:34:11;50.03;;;16.73;;
45734;SDS011;31446;49.632;8.328;2024-01-15T00:49:17;48.38;;;16.27;;
45734;SDS011;31446;49.632;8.328;2024-01-15T01:04:24;50.95;;;17.70;;
45734;SDS011;31446;49.632;8.328;2024-01-15T01:19:30;56.10;;;17.33;;
45734;SDS011;31446;49.632;8.328;2024-01-15T01:34:39;46.22;;;15.98;;
45734;SDS011;31446;49.632;8.328;2024-01-15T01:49:47;58.08;;;17.10;;
45734;SDS011;31446;49.632;8.328;2024-01-15T02:04:53;44.47;;;14.15;;
45734;SDS011;31446;49.632;8.328;2024-01-15T02:20:00;40.88;;;13.38;;
45734;SDS011;31446;49.632;8.328;2024-01-15T02:35:06;60.13;;;16.02;;
45734;SDS011;31446;49.632;8.328;2024-01-15T02:50:13;40.30;;;14.57;;
45734;SDS011;31446;49.632;8.328;2024-01-15T03:05:20;41.20;;;13.20;;
45734;SDS011;31446;49.632;8.328;2024-01-15T03:20:26;39.67;;;13.52;;
45734;SDS011;31446;49.632;8.328;2024-01-15T03:35:33;44.28;;;13.63;;
45734;SDS011;31446;49.632;8.328;2024-01-15T03:50:39;39.90;;;13.15;;
45734;SDS011;31446;49.632;8.328;2024-01-15T04:05:46;52.10;;;14.43;;
45734;SDS011;31446;49.632;8.328;2024-01-15T04:20:52;41.55;;;14.40;;
45734;SDS011;31446;49.632;8.328;2024-01-15T04:35:59;48.33;;;15.50;;
45734;SDS011;31446;49.632;8.328;2024-01-15T04:51:08;41.80;;;14.20;;
45734;SDS011;31446;49.632;8.328;2024-01-15T05:06:14;38.90;;;14.50;;
45734;SDS011;31446;49.632;8.328;2024-01-15T05:21:20;29.17;;;12.43;;
45734;SDS011;31446;49.632;8.328;2024-01-15T05:36:27;31.33;;;12.38;;
45734;SDS011;31446;49.632;8.328;2024-01-15T05:51:33;36.17;;;12.95;;
45734;SDS011;31446;49.632;8.328;2024-01-15T06:06:39;37.47;;;13.48;;
45734;SDS011;31446;49.632;8.328;2024-01-15T06:21:45;37.35;;;12.98;;
45734;SDS011;31446;49.632;8.328;2024-01-15T06:36:52;38.47;;;13.13;;
45734;SDS011;31446;49.632;8.328;2024-01-15T06:51:58;45.35;;;15.48;;
45734;SDS011;31446;49.632;8.328;2024-01-15T07:07:04;43.40;;;14.73;;
45734;SDS011;31446;49.632;8.328;2024-01-15T07:22:10;37.08;;;14.73;;
45734;SDS011;31446;49.632;8.328;2024-01-15T07:37:17;37.83;;;14.00;;
45734;SDS011;31446;49.632;8.328;2024-01-15T07:52:24;39.63;;;14.20;;
45734;SDS011;31446;49.632;8.328;2024-01-15T08:07:30;42.33;;;15.10;;
45734;SDS011;31446;49.632;8.328;2024-01-15T08:22:36;47.92;;;17.25;;
45734;SDS011;31446;49.632;8.328;2024-01-15T08:37:42;36.38;;;15.32;;
45734;SDS011;31446;49.632;8.328;2024-01-15T08:52:48;33.97;;;13.25;;
45734;SDS011;31446;49.632;8.328;2024-01-15T09:07:54;33.88;;;13.60;;
45734;SDS011;31446;49.632;8.328;2024-01-15T09:23:01;35.88;;;14.13;;
45734;SDS011;31446;49.632;8.328;2024-01-15T09:38:08;32.65;;;14.75;;
45734;SDS011;31446;49.632;8.328;2024-01-15T09:53:14;32.03;;;13.63;;
45734;SDS011;31446;49.632;8.328;2024-01-15T10:08:21;29.33;;;13.38;;
45734;SDS011;31446;49.632;8.328;2024-01-15T10:23:28;30.65;;;13.38;;
45734;SDS011;31446;49.632;8.328;2024-01-15T10:38:35;28.45;;;10.43;;
45734;SDS011;31446;49.632;8.328;2024-01-15T10:53:42;20.85;;;10.15;;
45734;SDS011;31446;49.632;8.328;2024-01-15T11:08:50;22.27;;;10.82;;
45734;SDS011;31446;49.632;8.328;2024-01-15T11:23:58;24.63;;;10.98;;
45734;SDS011;31446;49.632;8.328;2024-01-15T11:39:10;23.63;;;10.65;;
45734;SDS011;31446;49.632;8.328;2024-01-15T11:54:48;21.27;;;9.57;;
45734;SDS011;31446;49.632;8.328;2024-01-15T12:10:00;22.45;;;10.48;;
45734;SDS011;31446;49.632;8.328;2024-01-15T12:25:07;24.58;;;11.98;;
45734;SDS011;31446;49.632;8.328;2024-01-15T12:40:13;20.27;;;9.30;;
45734;SDS011;31446;49.632;8.328;2024-01-15T12:55:24;16.15;;;8.70;;
45734;SDS011;31446;49.632;8.328;2024-01-15T13:10:31;15.23;;;7.22;;
45734;SDS011;31446;49.632;8.328;2024-01-15T13:25:37;12.85;;;6.80;;
45734;SDS011;31446;49.632;8.328;2024-01-15T13:40:43;14.70;;;6.85;;
45734;SDS011;31446;49.632;8.328;2024-01-15T13:55:49;11.05;;;5.68;;
45734;SDS011;31446;49.632;8.328;2024-01-15T14:10:56;8.88;;;5.00;;
45734;SDS011;31446;49.632;8.328;2024-01-15T14:26:02;10.25;;;5.45;;
45734;SDS011;31446;49.632;8.328;2024-01-15T14:41:08;14.35;;;6.57;;
45734;SDS011;31446;49.632;8.328;2024-01-15T14:56:15;12.65;;;6.65;;
45734;SDS011;31446;49.632;8.328;2024-01-15T15:11:21;15.63;;;6.15;;
45734;SDS011;31446;49.632;8.328;2024-01-15T15:26:27;11.90;;;4.95;;
45734;SDS011;31446;49.632;8.328;2024-01-15T15:41:34;10.32;;;4.47;;
45734;SDS011;31446;49.632;8.328;2024-01-15T15:56:40;12.07;;;6.05;;
45734;SDS011;31446;49.632;8.328;2024-01-15T16:11:50;11.00;;;4.85;;
45734;SDS011;31446;49.632;8.328;2024-01-15T16:26:56;9.48;;;4.18;;
45734;SDS011;31446;49.632;8.328;2024-01-15T16:42:02;6.65;;;2.63;;
45734;SDS011;31446;49.632;8.328;2024-01-15T16:57:11;9.68;;;4.93;;
45734;SDS011;31446;49.632;8.328;2024-01-15T17:12:17;14.00;;;4.40;;
45734;SDS011;31446;49.632;8.328;2024-01-15T17:27:23;19.58;;;5.55;;
45734;SDS011;31446;49.632;8.328;2024-01-15T17:42:30;7.82;;;4.10;;
45734;SDS011;31446;49.632;8.328;2024-01-15T17:57:36;6.93;;;3.13;;
45734;SDS011;31446;49.632;8.328;2024-01-15T18:12:42;11.23;;;3.20;;
45734;SDS011;31446;49.632;8.328;2024-01-15T18:27:48;12.20;;;4.18;;
45734;SDS011;31446;49.632;8.328;2024-01-15T18:42:58;11.02;;;4.13;;
45734;SDS011;31446;49.632;8.328;2024-01-15T18:58:04;9.05;;;3.25;;
45734;SDS011;31446;49.632;8.328;2024-01-15T19:13:10;10.05;;;3.53;;
45734;SDS011;31446;49.632;8.328;2024-01-15T19:28:16;5.78;;;2.97;;
45734;SDS011;31446;49.632;8.328;2024-01-15T19:43:22;12.13;;;3.67;;
45734;SDS011;31446;49.632;8.328;2024-01-15T19:58:28;7.53;;;2.97;;
45734;SDS011;31446;49.632;8.328;2024-01-15T20:13:38;6.18;;;2.90;;
45734;SDS011;31446;49.632;8.328;2024-01-15T20:28:45;7.78;;;2.25;;
45734;SDS011;31446;49.632;8.328;2024-01-15T20:43:51;7.65;;;2.60;;
45734;SDS011;31446;49.632;8.328;2024-01-15T20:58:57;7.05;;;2.90;;
45734;SDS011;31446;49.632;8.328;2024-01-15T21:14:04;10.25;;;3.08;;
45734;SDS011;31446;49.632;8.328;2024-01-15T21:29:10;9.40;;;2.88;;
45734;SDS011;31446;49.632;8.328;2024-01-15T21:44:17;13.38;;;4.55;;
45734;SDS011;31446;49.632;8.328;2024-01-15T21:59:25;11.48;;;2.97;;
45734;SDS011;31446;49.632;8.328;2024-01-15T22:14:31;11.80;;;4.03;;
45734;SDS011;31446;49.632;8.328;2024-01-15T22:29:37;5.55;;;2.80;;
45734;SDS011;31446;49.632;8.328;2024-01-15T22:44:43;11.73;;;3.53;;
45734;SDS011;31446;49.632;8.328;2024-01-15T22:59:49;14.23;;;3.83;;
45734;SDS011;31446;49.632;8.328;2024-01-15T23:14:56;8.93;;;3.50;;
45734;SDS011;31446;49.632;8.328;2024-01-15T23:30:02;11.65;;;4.40;;
45734;SDS011;31446;49.632;8.328;2024-01-15T23:45:09;16.08;;;5.03;;
